createdAt,value
2023-06-30T00:02:12.633Z,69.56
2023-06-30T00:06:20.457Z,69.68
2023-06-30T00:10:27.844Z,69.84
2023-06-30T00:14:35.810Z,69.91
2023-06-30T00:18:44.940Z,69.78
2023-06-30T00:22:53.816Z,69.86
2023-06-30T00:27:01.880Z,69.80
2023-06-30T00:31:10.289Z,69.71
2023-06-30T00:35:17.983Z,69.62
2023-06-30T00:39:26.481Z,69.73
2023-06-30T00:43:34.730Z,69.94
2023-06-30T00:47:42.627Z,70.12
2023-06-30T00:51:50.193Z,70.25
2023-06-30T00:55:58.197Z,69.96
2023-06-30T01:00:12.057Z,69.82
2023-06-30T01:04:33.204Z,69.64
2023-06-30T01:08:48.677Z,69.68
2023-06-30T01:12:57.048Z,69.71
2023-06-30T01:17:06.335Z,70.10
2023-06-30T01:21:15.872Z,70.56
2023-06-30T01:25:26.964Z,71.05
2023-06-30T01:29:35.226Z,71.21
2023-06-30T01:33:43.712Z,71.56
2023-06-30T01:37:51.906Z,71.84
2023-06-30T01:42:00.041Z,71.66
2023-06-30T01:46:08.007Z,71.53
2023-06-30T01:50:15.640Z,71.38
2023-06-30T01:54:23.107Z,71.26
2023-06-30T01:58:33.325Z,71.01
2023-06-30T02:02:42.218Z,70.88
2023-06-30T02:06:49.576Z,70.73
2023-06-30T02:10:57.219Z,70.75
2023-06-30T02:15:05.383Z,70.82
2023-06-30T02:19:13.243Z,70.81
2023-06-30T02:23:21.326Z,70.95
2023-06-30T02:27:30.197Z,70.74
2023-06-30T02:31:40.114Z,70.66
2023-06-30T02:35:48.395Z,70.97
2023-06-30T02:39:59.737Z,71.35
2023-06-30T02:44:08.085Z,71.46
2023-06-30T02:48:15.898Z,71.36
2023-06-30T02:52:23.847Z,71.59
2023-06-30T02:56:32.071Z,71.83
2023-06-30T03:00:41.324Z,72.05
2023-06-30T03:04:49.402Z,71.94
2023-06-30T03:08:57.091Z,71.81
2023-06-30T03:13:05.827Z,71.44
2023-06-30T03:17:13.855Z,71.22
2023-06-30T03:21:23.739Z,70.93
2023-06-30T03:25:31.664Z,70.89
2023-06-30T03:29:41.331Z,70.62
2023-06-30T03:33:49.213Z,70.74
2023-06-30T03:37:56.693Z,70.58
2023-06-30T03:42:06.157Z,70.70
2023-06-30T03:46:16.798Z,70.75
2023-06-30T03:50:24.415Z,71.09
2023-06-30T03:54:32.258Z,71.30
2023-06-30T03:58:41.312Z,71.45
2023-06-30T04:02:49.084Z,71.53
2023-06-30T04:06:57.337Z,71.00
2023-06-30T04:11:05.108Z,71.12
2023-06-30T04:15:13.850Z,71.45
2023-06-30T04:19:22.480Z,71.89
2023-06-30T04:23:30.127Z,72.16
2023-06-30T04:27:37.826Z,72.78
2023-06-30T04:31:46.080Z,73.13
2023-06-30T04:35:54.267Z,72.98
2023-06-30T04:40:05.787Z,73.12
2023-06-30T04:44:16.876Z,73.41
2023-06-30T04:48:24.271Z,73.43
2023-06-30T04:52:31.960Z,73.83
2023-06-30T04:56:39.508Z,74.22
2023-06-30T05:00:47.253Z,74.54
2023-06-30T05:04:54.849Z,74.72
2023-06-30T05:09:08.941Z,74.97
2023-06-30T05:13:16.404Z,75.13
2023-06-30T05:17:27.530Z,75.32
2023-06-30T05:21:35.199Z,75.35
2023-06-30T05:25:43.997Z,75.07
2023-06-30T05:29:52.542Z,75.03
2023-06-30T05:33:59.724Z,74.66
2023-06-30T05:38:09.489Z,74.45
2023-06-30T05:42:18.756Z,74.43
2023-06-30T05:46:26.389Z,74.21
2023-06-30T05:50:34.264Z,74.05
2023-06-30T05:54:42.105Z,73.92
2023-06-30T05:58:49.442Z,73.46
2023-06-30T06:02:57.495Z,73.61
2023-06-30T06:07:06.928Z,73.64
2023-06-30T06:11:14.864Z,73.38
2023-06-30T06:15:23.881Z,72.94
2023-06-30T06:19:32.091Z,72.13
2023-06-30T06:23:40.987Z,71.68
2023-06-30T06:27:48.607Z,71.33
2023-06-30T06:31:57.378Z,71.09
2023-06-30T06:36:04.974Z,70.48
2023-06-30T06:40:14.215Z,70.18
2023-06-30T06:44:22.075Z,69.79
2023-06-30T06:48:30.228Z,68.86
2023-06-30T06:52:37.883Z,67.99
2023-06-30T06:56:46.982Z,66.76
2023-06-30T07:00:55.019Z,66.57
2023-06-30T07:05:02.497Z,64.34
2023-06-30T07:09:10.536Z,62.83
2023-06-30T07:13:20.303Z,62.20
2023-06-30T07:17:28.211Z,61.66
2023-06-30T07:21:35.593Z,60.86
2023-06-30T07:25:43.392Z,60.44
2023-06-30T07:29:53.836Z,61.03
2023-06-30T07:34:01.587Z,60.65
2023-06-30T07:38:09.399Z,60.27
2023-06-30T07:42:17.094Z,60.13
2023-06-30T07:46:26.541Z,60.70
2023-06-30T07:50:34.333Z,61.30
2023-06-30T07:54:43.914Z,61.43
2023-06-30T07:58:51.397Z,61.19
2023-06-30T08:02:59.733Z,59.80
2023-06-30T08:07:09.630Z,59.76
2023-06-30T08:11:17.111Z,58.94
2023-06-30T08:15:24.984Z,59.08
2023-06-30T08:19:47.590Z,59.92
2023-06-30T08:23:57.664Z,59.35
2023-06-30T08:28:05.794Z,59.21
2023-06-30T08:32:16.390Z,59.07
2023-06-30T08:36:26.445Z,59.34
2023-06-30T08:40:34.328Z,58.52
2023-06-30T08:44:44.985Z,58.16
2023-06-30T08:48:53.619Z,58.69
2023-06-30T08:53:02.365Z,58.82
2023-06-30T08:57:10.955Z,59.08
2023-06-30T09:01:18.612Z,59.52
2023-06-30T09:05:27.731Z,59.77
2023-06-30T09:09:40.727Z,59.64
2023-06-30T09:13:53.932Z,59.21
2023-06-30T09:18:01.605Z,58.99
2023-06-30T09:22:52.980Z,58.98
2023-06-30T09:26:37.633Z,58.35
2023-06-30T09:30:47.718Z,57.34
2023-06-30T09:34:57.986Z,57.28
2023-06-30T09:39:06.474Z,57.27
2023-06-30T09:43:19.812Z,57.60
2023-06-30T09:47:30.885Z,57.10
2023-06-30T09:51:40.461Z,56.91
2023-06-30T09:55:53.533Z,56.66
2023-06-30T10:00:04.685Z,57.49
2023-06-30T10:04:12.336Z,57.71
2023-06-30T10:08:19.823Z,58.09
2023-06-30T10:12:27.752Z,58.45
2023-06-30T10:16:35.774Z,58.73
2023-06-30T10:20:49.182Z,58.24
2023-06-30T10:24:59.154Z,57.51
2023-06-30T10:29:06.851Z,55.46
2023-06-30T10:33:14.509Z,54.33
2023-06-30T10:37:23.043Z,54.81
2023-06-30T10:41:31.523Z,54.79
2023-06-30T10:45:56.958Z,53.61
2023-06-30T10:50:16.191Z,53.61
2023-06-30T10:54:28.026Z,53.63
2023-06-30T10:58:45.351Z,53.20
2023-06-30T11:02:58.673Z,53.97
2023-06-30T11:07:11.686Z,54.33
2023-06-30T11:11:21.861Z,53.84
2023-06-30T11:15:38.183Z,54.37
2023-06-30T11:19:59.725Z,54.31
2023-06-30T11:24:17.958Z,54.20
2023-06-30T11:28:29.848Z,54.32
2023-06-30T11:32:38.743Z,53.43
2023-06-30T11:36:47.152Z,52.67
2023-06-30T11:40:57.947Z,53.25
2023-06-30T11:45:06.645Z,53.48
2023-06-30T11:49:14.424Z,53.30
2023-06-30T11:53:22.236Z,52.79
2023-06-30T11:57:30.394Z,52.22
2023-06-30T12:01:37.905Z,50.30
2023-06-30T12:06:00.669Z,50.91
2023-06-30T12:10:12.222Z,51.92
2023-06-30T12:14:22.805Z,51.63
2023-06-30T12:18:39.202Z,51.67
2023-06-30T12:22:47.028Z,52.11
2023-06-30T12:26:55.647Z,52.32
2023-06-30T12:31:03.336Z,52.24
2023-06-30T12:35:12.904Z,51.96
2023-06-30T12:39:24.472Z,52.25
2023-06-30T12:43:31.794Z,53.21
2023-06-30T12:47:39.920Z,52.22
2023-06-30T12:51:47.410Z,52.02
2023-06-30T12:55:57.464Z,53.13
2023-06-30T13:00:08.978Z,55.81
2023-06-30T13:04:19.101Z,57.70
2023-06-30T13:08:26.828Z,57.59
2023-06-30T13:12:37.294Z,57.10
2023-06-30T13:16:45.679Z,57.41
2023-06-30T13:20:53.305Z,57.46
2023-06-30T13:25:01.051Z,58.10
2023-06-30T13:29:08.593Z,59.11
2023-06-30T13:33:16.059Z,59.59
2023-06-30T13:37:24.102Z,60.30
2023-06-30T13:41:32.588Z,61.27
2023-06-30T13:45:40.858Z,61.88
2023-06-30T13:49:48.414Z,62.18
2023-06-30T13:53:56.004Z,63.14
2023-06-30T13:58:05.291Z,63.46
2023-06-30T14:02:13.458Z,63.89
2023-06-30T14:06:21.836Z,64.45
2023-06-30T14:10:30.123Z,64.74
2023-06-30T14:14:38.206Z,64.71
2023-06-30T14:18:45.910Z,64.56
2023-06-30T14:22:53.589Z,64.36
2023-06-30T14:27:04.459Z,64.11
2023-06-30T14:31:12.617Z,64.51
2023-06-30T14:35:20.377Z,65.47
2023-06-30T14:39:29.860Z,66.16
2023-06-30T14:43:40.861Z,66.99
2023-06-30T14:47:48.617Z,67.71
2023-06-30T14:51:56.149Z,67.97
2023-06-30T14:56:03.947Z,67.90
2023-06-30T15:00:14.573Z,67.53
2023-06-30T15:04:22.058Z,67.01
2023-06-30T15:08:29.750Z,66.93
2023-06-30T15:12:39.282Z,67.43
2023-06-30T15:16:53.152Z,68.42
2023-06-30T15:21:01.165Z,68.96
2023-06-30T15:25:10.164Z,69.01
2023-06-30T15:29:18.110Z,68.65
2023-06-30T15:33:27.061Z,68.47
2023-06-30T15:37:34.719Z,68.61
2023-06-30T15:41:45.454Z,68.45
2023-06-30T15:45:56.403Z,68.66
2023-06-30T15:50:04.323Z,68.46
2023-06-30T15:54:13.840Z,68.67
2023-06-30T15:58:21.480Z,69.07
2023-06-30T16:02:29.194Z,69.12
2023-06-30T16:06:37.012Z,69.36
2023-06-30T16:10:44.681Z,69.70
2023-06-30T16:14:52.588Z,70.21
2023-06-30T16:19:00.165Z,70.75
2023-06-30T16:23:07.812Z,70.73
2023-06-30T16:27:15.275Z,70.62
2023-06-30T16:31:22.863Z,70.99
2023-06-30T16:35:31.182Z,71.13
2023-06-30T16:39:38.996Z,71.14
2023-06-30T16:43:46.407Z,71.02
2023-06-30T16:47:54.331Z,70.98
2023-06-30T16:52:01.961Z,71.38
2023-06-30T16:56:09.925Z,71.31
2023-06-30T17:00:19.270Z,70.92
2023-06-30T17:04:26.769Z,71.34
2023-06-30T17:08:34.726Z,71.57
2023-06-30T17:12:42.576Z,71.97
2023-06-30T17:16:50.175Z,72.10
2023-06-30T17:20:59.246Z,72.40
2023-06-30T17:25:07.785Z,72.54
2023-06-30T17:29:16.294Z,72.60
2023-06-30T17:33:24.074Z,72.81
2023-06-30T17:37:32.203Z,72.88
2023-06-30T17:41:39.617Z,73.08
2023-06-30T17:45:46.974Z,73.27
2023-06-30T17:49:54.822Z,73.25
2023-06-30T17:54:02.244Z,73.18
2023-06-30T17:58:10.048Z,73.45
2023-06-30T18:02:18.370Z,73.43
2023-06-30T18:06:27.526Z,73.96
2023-06-30T18:10:35.595Z,74.00
2023-06-30T18:14:44.773Z,74.23
2023-06-30T18:18:52.467Z,74.48
2023-06-30T18:23:00.269Z,74.69
2023-06-30T18:27:08.904Z,74.80
2023-06-30T18:31:16.440Z,74.90
2023-06-30T18:35:24.020Z,75.14
2023-06-30T18:39:31.644Z,75.34
2023-06-30T18:43:40.496Z,75.32
2023-06-30T18:47:51.287Z,75.51
2023-06-30T18:51:59.712Z,75.36
2023-06-30T18:56:08.091Z,75.63
2023-06-30T19:00:17.702Z,75.40
2023-06-30T19:04:25.558Z,75.57
2023-06-30T19:08:34.150Z,75.47
2023-06-30T19:12:41.756Z,75.54
2023-06-30T19:16:49.059Z,75.61
2023-06-30T19:20:56.674Z,75.68
2023-06-30T19:25:04.960Z,75.81
2023-06-30T19:29:12.534Z,75.89
2023-06-30T19:33:25.192Z,75.59
2023-06-30T19:37:36.029Z,75.29
2023-06-30T19:41:43.994Z,75.39
2023-06-30T19:45:52.532Z,75.28
2023-06-30T19:50:00.453Z,75.38
2023-06-30T19:54:08.233Z,75.44
2023-06-30T19:58:15.737Z,75.72
2023-06-30T20:02:23.705Z,75.73
2023-06-30T20:06:31.834Z,75.84
2023-06-30T20:10:39.758Z,76.00
2023-06-30T20:14:47.937Z,76.08
2023-06-30T20:18:57.454Z,76.17
2023-06-30T20:23:05.691Z,76.20
2023-06-30T20:27:13.823Z,76.12
2023-06-30T20:31:21.545Z,76.27
2023-06-30T20:35:29.029Z,76.33
2023-06-30T20:39:37.511Z,76.26
2023-06-30T20:43:45.250Z,76.40
2023-06-30T20:47:53.831Z,76.61
2023-06-30T20:52:02.127Z,76.52
2023-06-30T20:56:09.788Z,76.45
2023-06-30T21:00:18.734Z,76.54
2023-06-30T21:04:26.781Z,76.53
2023-06-30T21:08:35.256Z,76.34
2023-06-30T21:12:43.008Z,76.39
2023-06-30T21:16:50.930Z,76.37
2023-06-30T21:20:58.558Z,76.42
2023-06-30T21:25:07.149Z,76.29
2023-06-30T21:29:15.205Z,76.42
2023-06-30T21:33:22.934Z,76.46
2023-06-30T21:37:32.355Z,76.42
2023-06-30T21:41:40.630Z,76.36
2023-06-30T21:45:48.085Z,76.40
2023-06-30T21:49:56.913Z,76.36
2023-06-30T21:54:08.462Z,76.51
2023-06-30T21:58:26.964Z,76.71
2023-06-30T22:02:36.151Z,76.71
2023-06-30T22:06:45.018Z,76.90
2023-06-30T22:10:52.991Z,76.92
2023-06-30T22:15:01.560Z,77.08
2023-06-30T22:19:09.363Z,77.20
2023-06-30T22:23:17.255Z,77.30
2023-06-30T22:27:24.946Z,77.32
2023-06-30T22:31:32.762Z,77.46
2023-06-30T22:35:43.004Z,77.62
2023-06-30T22:39:50.881Z,77.84
2023-06-30T22:43:59.218Z,77.86
2023-06-30T22:48:07.893Z,78.11
2023-06-30T22:52:15.868Z,78.16
2023-06-30T22:56:24.255Z,78.32
2023-06-30T23:00:32.089Z,78.66
2023-06-30T23:04:41.307Z,78.94
2023-06-30T23:08:49.598Z,79.07
2023-06-30T23:13:04.364Z,79.69
2023-06-30T23:17:16.331Z,80.07
2023-06-30T23:21:29.119Z,80.47
2023-06-30T23:25:38.841Z,81.08
2023-06-30T23:29:50.638Z,81.41
2023-06-30T23:34:03.779Z,81.40
2023-06-30T23:38:12.883Z,81.90
2023-06-30T23:42:20.865Z,81.81
2023-06-30T23:46:30.198Z,81.83
2023-06-30T23:50:37.607Z,81.95
2023-06-30T23:54:46.202Z,81.97
2023-06-30T23:58:55.949Z,81.92
